Time;durP1;ratioP1;P1;durP2;ratioP2;P2;SDS_P1;SDS_P2;PMS_P1;PMS_P2;Temp;Humidity;BMP_temperature;BMP_pressure;BME280_temperature;BME280_humidity;BME280_pressure;Samples;Min_cycle;Max_cycle;Signal;HPM_P1;HPM_P2
2022/08/17 00:00:55;;;;;;;15.10;13.27;;;;;;;;;;5067684;28;20020;-79
2022/08/17 00:03:22;;;;;;;15.45;13.80;;;;;;;;;;5060796;28;20024;-77
2022/08/17 00:05:52;;;;;;;14.02;12.52;;;;;;;;;;5060325;28;20899;-82
2022/08/17 00:08:20;;;;;;;17.80;14.32;;;;;;;;;;5061364;28;20080;-85
2022/08/17 00:10:47;;;;;;;15.45;13.20;;;;;;;;;;5067221;28;20540;-78
2022/08/17 00:13:28;;;;;;;15.80;13.45;;;;;;;;;;5060276;28;20027;-77
2022/08/17 00:15:58;;;;;;;16.33;14.23;;;;;;;;;;5065309;28;20393;-75
2022/08/17 00:18:28;;;;;;;14.35;12.77;;;;;;;;;;5059423;28;20488;-73
2022/08/17 00:20:55;;;;;;;16.58;14.88;;;;;;;;;;5069859;28;20012;-85
2022/08/17 00:23:21;;;;;;;15.88;13.27;;;;;;;;;;5060281;28;20099;-80
2022/08/17 00:25:47;;;;;;;17.17;15.13;;;;;;;;;;5066547;28;20062;-85
2022/08/17 00:28:14;;;;;;;16.05;13.43;;;;;;;;;;5066914;28;20534;-82
2022/08/17 00:30:41;;;;;;;15.63;14.02;;;;;;;;;;5064604;28;20512;-78
2022/08/17 00:33:10;;;;;;;14.30;12.80;;;;;;;;;;5061319;28;20432;-77
2022/08/17 00:35:36;;;;;;;16.10;14.18;;;;;;;;;;5061359;28;20037;-85
2022/08/17 00:38:05;;;;;;;15.63;14.00;;;;;;;;;;5063821;28;20127;-78
2022/08/17 00:40:30;;;;;;;15.65;13.65;;;;;;;;;;5061924;28;20024;-78
2022/08/17 00:42:56;;;;;;;18.92;15.20;;;;;;;;;;5065869;28;20484;-83
2022/08/17 00:45:22;;;;;;;14.98;13.38;;;;;;;;;;5065990;28;20056;-75
2022/08/17 00:47:48;;;;;;;15.20;12.77;;;;;;;;;;5071965;28;20059;-78
2022/08/17 00:50:16;;;;;;;14.70;12.68;;;;;;;;;;5066547;28;20188;-81
2022/08/17 00:52:54;;;;;;;15.27;13.70;;;;;;;;;;5064406;28;20032;-73
2022/08/17 00:55:22;;;;;;;17.52;14.35;;;;;;;;;;5061535;28;20065;-77
2022/08/17 00:57:52;;;;;;;16.13;14.43;;;;;;;;;;5068880;28;20377;-82
2022/08/17 01:00:25;;;;;;;16.83;14.10;;;;;;;;;;5057430;28;20024;-80
2022/08/17 01:03:01;;;;;;;16.35;13.10;;;;;;;;;;5066876;28;20028;-75
2022/08/17 01:05:29;;;;;;;16.58;14.85;;;;;;;;;;5061467;28;20503;-86
2022/08/17 01:07:56;;;;;;;15.38;13.70;;;;;;;;;;5061240;28;20424;-75
2022/08/17 01:10:34;;;;;;;15.20;12.85;;;;;;;;;;5056889;28;20020;-78
2022/08/17 01:13:04;;;;;;;18.20;15.80;;;;;;;;;;5059148;28;20020;-85
2022/08/17 01:15:33;;;;;;;15.23;13.43;;;;;;;;;;5061681;28;20122;-77
2022/08/17 01:17:59;;;;;;;14.63;12.90;;;;;;;;;;5062329;28;20043;-77
2022/08/17 01:20:25;;;;;;;14.35;12.20;;;;;;;;;;5064941;28;20389;-85
2022/08/17 01:22:51;;;;;;;14.30;12.45;;;;;;;;;;5062722;28;20025;-83
2022/08/17 01:25:18;;;;;;;16.23;14.55;;;;;;;;;;5064428;28;20554;-77
2022/08/17 01:27:43;;;;;;;14.50;13.00;;;;;;;;;;5065044;28;20029;-78
2022/08/17 01:30:11;;;;;;;14.05;12.15;;;;;;;;;;5062855;28;20032;-77
2022/08/17 01:32:37;;;;;;;14.93;13.27;;;;;;;;;;5063398;28;20489;-73
2022/08/17 01:35:03;;;;;;;17.23;13.20;;;;;;;;;;5066822;28;20056;-78
2022/08/17 01:37:36;;;;;;;13.43;11.88;;;;;;;;;;5059891;28;20056;-84
2022/08/17 01:40:13;;;;;;;;;;;;;;;;;;5064734;28;20519;-78
2022/08/17 01:42:50;;;;;;;15.52;13.60;;;;;;;;;;5064378;28;19916;-74
2022/08/17 01:45:26;;;;;;;15.52;12.63;;;;;;;;;;5064065;28;20024;-74
2022/08/17 01:47:52;;;;;;;15.90;12.77;;;;;;;;;;5065634;28;20033;-73
2022/08/17 01:50:25;;;;;;;16.55;14.07;;;;;;;;;;5061485;28;20438;-85
2022/08/17 01:53:04;;;;;;;17.08;12.82;;;;;;;;;;5065665;28;20032;-75
2022/08/17 01:55:39;;;;;;;13.75;12.35;;;;;;;;;;5063400;28;20029;-81
2022/08/17 01:58:08;;;;;;;15.98;13.57;;;;;;;;;;5061665;28;20582;-75
2022/08/17 02:00:37;;;;;;;16.15;12.98;;;;;;;;;;5059060;28;20078;-77
2022/08/17 02:03:03;;;;;;;14.25;12.68;;;;;;;;;;5064538;28;20500;-77
2022/08/17 02:05:28;;;;;;;14.50;12.52;;;;;;;;;;5059318;28;20071;-77
2022/08/17 02:07:53;;;;;;;16.58;14.75;;;;;;;;;;5066208;28;20446;-77
2022/08/17 02:10:19;;;;;;;17.38;15.02;;;;;;;;;;5063122;28;20032;-85
2022/08/17 02:12:44;;;;;;;12.93;11.52;;;;;;;;;;5060997;28;20024;-77
2022/08/17 02:15:13;;;;;;;14.75;12.30;;;;;;;;;;5062890;28;20032;-76
2022/08/17 02:17:39;;;;;;;15.80;14.10;;;;;;;;;;5062549;28;20519;-73
2022/08/17 02:20:07;;;;;;;16.42;14.82;;;;;;;;;;5063502;28;20036;-77
2022/08/17 02:22:35;;;;;;;15.85;14.02;;;;;;;;;;5062402;28;20473;-74
2022/08/17 02:25:01;;;;;;;15.68;13.98;;;;;;;;;;5058575;28;20403;-77
2022/08/17 02:27:26;;;;;;;18.67;16.48;;;;;;;;;;5061459;28;20032;-78
2022/08/17 02:29:52;;;;;;;19.45;17.10;;;;;;;;;;5063830;28;20040;-76
2022/08/17 02:32:24;;;;;;;17.70;15.90;;;;;;;;;;5067505;28;20024;-73
2022/08/17 02:34:50;;;;;;;;;;;;;;;;;;5054567;28;20044;-77
2022/08/17 02:37:18;;;;;;;16.45;14.38;;;;;;;;;;5066087;28;19916;-77
2022/08/17 02:39:44;;;;;;;15.40;13.50;;;;;;;;;;5060277;28;20035;-73
2022/08/17 02:42:12;;;;;;;13.27;11.85;;;;;;;;;;5064579;28;20081;-73
2022/08/17 02:44:38;;;;;;;19.20;15.85;;;;;;;;;;5062010;28;20029;-78
2022/08/17 02:47:03;;;;;;;17.17;15.48;;;;;;;;;;5060280;28;20039;-77
2022/08/17 02:49:29;;;;;;;16.50;14.50;;;;;;;;;;5065111;28;20432;-85
2022/08/17 02:51:56;;;;;;;16.27;14.63;;;;;;;;;;5063742;28;20024;-74
2022/08/17 02:54:22;;;;;;;14.88;13.30;;;;;;;;;;5054087;28;20025;-76
2022/08/17 02:56:48;;;;;;;14.40;12.88;;;;;;;;;;5063812;28;20033;-73
2022/08/17 02:59:13;;;;;;;18.40;16.50;;;;;;;;;;5059304;28;20013;-76
2022/08/17 03:01:39;;;;;;;17.75;15.73;;;;;;;;;;5060094;28;20032;-84
2022/08/17 03:04:04;;;;;;;18.10;16.20;;;;;;;;;;5061968;28;20386;-78
2022/08/17 03:06:30;;;;;;;17.92;15.32;;;;;;;;;;5062153;28;20044;-75
2022/08/17 03:08:56;;;;;;;17.27;15.48;;;;;;;;;;5056861;28;20021;-77
2022/08/17 03:11:22;;;;;;;17.45;14.80;;;;;;;;;;5062624;28;20090;-72
2022/08/17 03:13:48;;;;;;;15.35;13.68;;;;;;;;;;5062391;28;20981;-78
2022/08/17 03:16:14;;;;;;;18.60;16.70;;;;;;;;;;5059453;28;20036;-85
2022/08/17 03:18:40;;;;;;;17.45;15.25;;;;;;;;;;5064757;28;20072;-76
2022/08/17 03:21:07;;;;;;;16.40;14.65;;;;;;;;;;5062365;28;20113;-85
2022/08/17 03:23:33;;;;;;;15.48;12.73;;;;;;;;;;5066059;28;20134;-73
2022/08/17 03:25:59;;;;;;;13.68;12.23;;;;;;;;;;5062204;28;20028;-83
2022/08/17 03:28:27;;;;;;;13.05;11.65;;;;;;;;;;5062568;28;20028;-80
2022/08/17 03:30:52;;;;;;;13.32;11.98;;;;;;;;;;5054996;28;20028;-76
2022/08/17 03:33:18;;;;;;;13.23;11.90;;;;;;;;;;5065356;28;20024;-85
2022/08/17 03:35:43;;;;;;;14.23;12.45;;;;;;;;;;5060634;28;20068;-84
2022/08/17 03:38:10;;;;;;;14.25;12.75;;;;;;;;;;5068194;28;20042;-75
2022/08/17 03:40:37;;;;;;;15.93;14.02;;;;;;;;;;5066263;28;20025;-73
2022/08/17 03:43:07;;;;;;;16.15;13.93;;;;;;;;;;5067720;28;20090;-73
2022/08/17 03:56:42;;;;;;;14.32;12.93;;;;;;;;;;5061924;28;20039;-85
2022/08/17 03:59:20;;;;;;;14.70;13.20;;;;;;;;;;5061586;28;20120;-74
2022/08/17 04:01:48;;;;;;;13.02;10.93;;;;;;;;;;5058847;28;20504;-78
2022/08/17 04:04:13;;;;;;;14.32;12.82;;;;;;;;;;5065205;28;20111;-75
2022/08/17 04:06:40;;;;;;;14.05;12.02;;;;;;;;;;5064065;28;20617;-74
2022/08/17 04:09:06;;;;;;;13.20;11.80;;;;;;;;;;5065227;28;20029;-77
2022/08/17 04:11:33;;;;;;;14.70;12.77;;;;;;;;;;5062683;28;20106;-76
2022/08/17 04:13:59;;;;;;;17.38;14.25;;;;;;;;;;5059310;28;20679;-77
2022/08/17 04:16:24;;;;;;;16.05;14.35;;;;;;;;;;5063196;28;20762;-75
2022/08/17 04:18:51;;;;;;;16.55;14.88;;;;;;;;;;5065107;28;20039;-75
2022/08/17 04:21:17;;;;;;;14.90;13.32;;;;;;;;;;5064098;28;20087;-77
2022/08/17 04:23:43;;;;;;;15.70;14.10;;;;;;;;;;5066195;28;20036;-77
2022/08/17 04:26:09;;;;;;;13.88;12.40;;;;;;;;;;5058053;28;20035;-76
2022/08/17 04:28:34;;;;;;;16.33;14.55;;;;;;;;;;5058029;28;20040;-77
2022/08/17 04:31:00;;;;;;;13.25;11.85;;;;;;;;;;5062031;28;20032;-75
2022/08/17 04:33:28;;;;;;;14.80;13.02;;;;;;;;;;5062694;28;20020;-83
2022/08/17 04:36:01;;;;;;;16.02;14.32;;;;;;;;;;5051965;28;20041;-85
2022/08/17 04:38:29;;;;;;;14.25;12.48;;;;;;;;;;5066120;28;20048;-75
2022/08/17 04:43:42;;;;;;;12.73;11.32;;;;;;;;;;5063230;28;20074;-76
2022/08/17 04:46:10;;;;;;;13.95;10.80;;;;;;;;;;5066474;28;20032;-73
2022/08/17 04:48:39;;;;;;;12.73;11.23;;;;;;;;;;5066463;28;20047;-83
2022/08/17 04:51:12;;;;;;;12.90;11.50;;;;;;;;;;5067030;28;20119;-76
2022/08/17 04:53:40;;;;;;;12.70;11.38;;;;;;;;;;5065288;28;20031;-77
2022/08/17 04:56:06;;;;;;;13.95;11.25;;;;;;;;;;5063375;28;20020;-82
2022/08/17 04:58:32;;;;;;;14.13;12.73;;;;;;;;;;5063741;28;20052;-76
2022/08/17 05:00:57;;;;;;;14.63;12.65;;;;;;;;;;5062680;28;20029;-75
2022/08/17 05:03:22;;;;;;;14.90;12.15;;;;;;;;;;5064784;28;20092;-76
2022/08/17 05:05:48;;;;;;;14.18;11.40;;;;;;;;;;5065162;28;20472;-75
2022/08/17 05:08:15;;;;;;;11.90;10.63;;;;;;;;;;5061802;28;20017;-73
2022/08/17 05:10:42;;;;;;;11.40;9.93;;;;;;;;;;5068444;28;20105;-83
2022/08/17 05:13:10;;;;;;;9.88;8.85;;;;;;;;;;5062025;28;20040;-74
2022/08/17 05:15:38;;;;;;;11.95;9.57;;;;;;;;;;5069710;28;20032;-75
2022/08/17 05:18:05;;;;;;;10.38;9.00;;;;;;;;;;5064714;28;20492;-74
2022/08/17 05:20:31;;;;;;;10.98;9.48;;;;;;;;;;5063953;28;20530;-73
2022/08/17 05:23:00;;;;;;;11.50;9.75;;;;;;;;;;5061222;28;20028;-77
2022/08/17 05:25:31;;;;;;;9.88;8.85;;;;;;;;;;5083747;28;20033;-75
2022/08/17 05:27:57;;;;;;;11.60;9.02;;;;;;;;;;5061611;28;20028;-74
2022/08/17 05:30:24;;;;;;;12.77;11.35;;;;;;;;;;5064388;28;20453;-77
2022/08/17 05:33:26;;;;;;;10.98;9.40;;;;;;;;;;5067073;28;20032;-76
2022/08/17 05:36:19;;;;;;;9.15;7.97;;;;;;;;;;5056602;28;20074;-79
2022/08/17 05:38:47;;;;;;;12.25;10.90;;;;;;;;;;5066250;28;20028;-78
2022/08/17 05:41:13;;;;;;;13.15;10.60;;;;;;;;;;5062946;28;20484;-75
2022/08/17 05:43:40;;;;;;;11.13;8.93;;;;;;;;;;5065865;28;20051;-76
2022/08/17 05:46:22;;;;;;;10.13;8.88;;;;;;;;;;5055932;28;20020;-78
2022/08/17 05:48:50;;;;;;;10.63;9.40;;;;;;;;;;5063721;28;20032;-78
2022/08/17 05:51:44;;;;;;;11.23;9.15;;;;;;;;;;5057836;28;20070;-75
2022/08/17 05:54:29;;;;;;;15.38;11.43;;;;;;;;;;5068307;28;20508;-74
2022/08/17 05:57:12;;;;;;;9.63;8.52;;;;;;;;;;5055275;28;20040;-78
2022/08/17 05:59:56;;;;;;;10.00;8.60;;;;;;;;;;5063852;28;20024;-81
2022/08/17 06:02:40;;;;;;;12.38;10.82;;;;;;;;;;5061898;28;20020;-77
2022/08/17 06:05:21;;;;;;;9.85;8.77;;;;;;;;;;5062932;28;20035;-76
2022/08/17 06:08:26;;;;;;;11.82;10.30;;;;;;;;;;5060856;28;20052;-75
2022/08/17 06:11:00;;;;;;;10.88;8.50;;;;;;;;;;5060890;28;20813;-78
2022/08/17 06:13:50;;;;;;;12.20;10.13;;;;;;;;;;5060145;28;20465;-78
2022/08/17 06:16:21;;;;;;;10.50;9.40;;;;;;;;;;5057213;28;20028;-84
2022/08/17 06:18:58;;;;;;;9.43;8.43;;;;;;;;;;5056759;28;20039;-85
2022/08/17 06:21:25;;;;;;;11.02;9.48;;;;;;;;;;5046047;28;20032;-78
2022/08/17 06:24:01;;;;;;;10.50;8.60;;;;;;;;;;5054124;28;20036;-78
2022/08/17 06:26:32;;;;;;;9.70;8.02;;;;;;;;;;5058397;28;20078;-85
2022/08/17 06:29:21;;;;;;;12.48;10.68;;;;;;;;;;5058280;28;20040;-74
2022/08/17 06:31:46;;;;;;;8.60;7.70;;;;;;;;;;5056216;28;20116;-85
2022/08/17 06:34:12;;;;;;;10.23;9.15;;;;;;;;;;5064673;28;20169;-74
2022/08/17 06:36:59;;;;;;;11.13;9.00;;;;;;;;;;5068384;28;20441;-78
2022/08/17 06:39:42;;;;;;;11.32;9.95;;;;;;;;;;5068576;28;20033;-74
2022/08/17 06:42:26;;;;;;;13.35;9.77;;;;;;;;;;5066945;28;20591;-75
2022/08/17 06:45:08;;;;;;;10.55;8.93;;;;;;;;;;5056757;28;20043;-74
2022/08/17 06:47:41;;;;;;;12.55;11.23;;;;;;;;;;5050279;28;20036;-79
2022/08/17 06:50:06;;;;;;;;;;;;;;;;;;5064904;28;20064;-75
2022/08/17 06:52:40;;;;;;;12.53;9.90;;;;;;;;;;5063002;28;19955;-75
2022/08/17 06:55:19;;;;;;;12.43;10.85;;;;;;;;;;5067170;28;20683;-79
2022/08/17 06:57:50;;;;;;;11.90;10.05;;;;;;;;;;5060831;28;20536;-77
2022/08/17 07:00:22;;;;;;;49.22;11.73;;;;;;;;;;5069484;28;20025;-74
2022/08/17 07:03:09;;;;;;;13.68;10.18;;;;;;;;;;5071325;28;20096;-80
2022/08/17 07:05:55;;;;;;;14.68;10.35;;;;;;;;;;5071827;28;20048;-78
2022/08/17 07:08:36;;;;;;;16.98;12.15;;;;;;;;;;5068718;28;20029;-74
2022/08/17 07:11:19;;;;;;;14.07;10.85;;;;;;;;;;5069105;28;20032;-75
2022/08/17 07:14:35;;;;;;;16.67;11.27;;;;;;;;;;5073484;28;20099;-77
2022/08/17 07:17:12;;;;;;;10.45;9.35;;;;;;;;;;5048130;28;20032;-74
2022/08/17 07:19:40;;;;;;;13.90;11.52;;;;;;;;;;5073121;28;20107;-78
2022/08/17 07:22:24;;;;;;;15.48;11.40;;;;;;;;;;5065347;28;20037;-76
2022/08/17 07:25:02;;;;;;;14.77;10.45;;;;;;;;;;5062103;28;20063;-74
2022/08/17 07:27:36;;;;;;;15.13;11.80;;;;;;;;;;5070050;28;20103;-80
2022/08/17 07:30:26;;;;;;;15.77;11.23;;;;;;;;;;5066461;28;20025;-76
2022/08/17 07:33:07;;;;;;;12.95;11.35;;;;;;;;;;5072628;28;20032;-76
2022/08/17 07:35:40;;;;;;;12.95;11.57;;;;;;;;;;5071613;28;20072;-77
2022/08/17 07:38:15;;;;;;;12.73;10.15;;;;;;;;;;5069410;28;20460;-78
2022/08/17 07:40:47;;;;;;;14.73;10.10;;;;;;;;;;5062904;28;20136;-75
2022/08/17 07:43:26;;;;;;;14.30;12.77;;;;;;;;;;5062652;28;20036;-78
2022/08/17 07:49:03;;;;;;;14.27;11.57;;;;;;;;;;5064210;28;20028;-78
2022/08/17 07:51:39;;;;;;;15.27;12.88;;;;;;;;;;5071882;28;20474;-78
2022/08/17 07:54:14;;;;;;;12.45;10.88;;;;;;;;;;5068239;28;20530;-77
2022/08/17 07:56:48;;;;;;;14.40;10.70;;;;;;;;;;5067497;28;20078;-77
2022/08/17 07:59:35;;;;;;;11.38;9.50;;;;;;;;;;5073685;28;20099;-79
2022/08/17 08:02:13;;;;;;;15.63;10.38;;;;;;;;;;5063965;28;20032;-79
2022/08/17 08:04:41;;;;;;;11.93;10.65;;;;;;;;;;5072385;28;20036;-80
2022/08/17 08:07:24;;;;;;;14.88;11.30;;;;;;;;;;5068320;28;20028;-77
2022/08/17 08:10:31;;;;;;;13.53;11.80;;;;;;;;;;5069944;28;20115;-77
2022/08/17 08:13:23;;;;;;;12.50;10.38;;;;;;;;;;5027095;28;20045;-77
2022/08/17 08:16:10;;;;;;;13.93;10.23;;;;;;;;;;5069324;28;20055;-74
2022/08/17 08:18:41;;;;;;;14.82;12.70;;;;;;;;;;5072784;28;20024;-76
2022/08/17 08:21:50;;;;;;;14.40;11.27;;;;;;;;;;5059577;28;20052;-76
2022/08/17 08:24:34;;;;;;;12.35;9.80;;;;;;;;;;5061528;28;20501;-77
2022/08/17 08:27:08;;;;;;;16.45;11.20;;;;;;;;;;5071337;28;20104;-76
2022/08/17 08:29:39;;;;;;;14.10;11.90;;;;;;;;;;5068019;28;20408;-74
2022/08/17 08:32:33;;;;;;;13.50;11.05;;;;;;;;;;5067078;28;20028;-74
2022/08/17 08:35:21;;;;;;;12.77;10.57;;;;;;;;;;5073073;28;20378;-77
2022/08/17 08:38:06;;;;;;;13.23;11.02;;;;;;;;;;5069147;28;20028;-77
2022/08/17 08:41:29;;;;;;;10.90;9.23;;;;;;;;;;5072531;28;20028;-78
2022/08/17 08:44:30;;;;;;;13.80;11.13;;;;;;;;;;4966760;28;20712;-77
2022/08/17 08:47:08;;;;;;;13.90;10.38;;;;;;;;;;4962606;28;20117;-79
2022/08/17 08:50:00;;;;;;;14.57;12.57;;;;;;;;;;5051521;28;20058;-74
2022/08/17 08:52:32;;;;;;;12.25;10.95;;;;;;;;;;5075890;28;20059;-77
2022/08/17 08:55:11;;;;;;;13.88;11.82;;;;;;;;;;5071349;28;20137;-76
2022/08/17 08:57:44;;;;;;;17.55;14.13;;;;;;;;;;5067829;28;20029;-76
2022/08/17 09:00:17;;;;;;;15.50;13.82;;;;;;;;;;5066420;28;20030;-75
2022/08/17 09:03:12;;;;;;;17.73;14.27;;;;;;;;;;5071879;28;20393;-76
2022/08/17 09:06:06;;;;;;;15.48;13.07;;;;;;;;;;5068946;28;20038;-79
2022/08/17 09:08:45;;;;;;;16.08;14.38;;;;;;;;;;5079133;28;20239;-76
2022/08/17 09:11:34;;;;;;;17.45;14.88;;;;;;;;;;5062563;28;20032;-75
2022/08/17 09:14:33;;;;;;;18.38;15.73;;;;;;;;;;5064939;28;20029;-77
2022/08/17 09:17:24;;;;;;;17.17;15.27;;;;;;;;;;5056450;28;20059;-78
2022/08/17 09:19:59;;;;;;;16.45;14.60;;;;;;;;;;5060399;28;20028;-78
2022/08/17 09:22:34;;;;;;;17.60;14.77;;;;;;;;;;5061530;28;20032;-75
2022/08/17 09:25:12;;;;;;;20.85;16.50;;;;;;;;;;5066193;28;20107;-76
2022/08/17 09:27:50;;;;;;;15.45;12.93;;;;;;;;;;5072784;28;20032;-75
2022/08/17 09:30:17;;;;;;;17.50;14.90;;;;;;;;;;5069261;28;20035;-76
2022/08/17 09:32:54;;;;;;;18.27;13.07;;;;;;;;;;5073162;28;20032;-75
2022/08/17 09:35:26;;;;;;;16.60;14.07;;;;;;;;;;5063752;28;20922;-76
2022/08/17 09:38:28;;;;;;;17.63;14.77;;;;;;;;;;5064258;28;20030;-73
2022/08/17 09:41:23;;;;;;;17.88;14.90;;;;;;;;;;5061539;28;20036;-77
2022/08/17 09:43:57;;;;;;;18.25;14.23;;;;;;;;;;5066207;28;20082;-77
2022/08/17 09:46:30;;;;;;;17.70;14.85;;;;;;;;;;5067261;28;20115;-76
2022/08/17 09:49:15;;;;;;;17.77;15.43;;;;;;;;;;5067751;28;20052;-76
2022/08/17 09:51:47;;;;;;;15.00;11.20;;;;;;;;;;5065637;28;20032;-75
2022/08/17 09:54:17;;;;;;;;;;;;;;;;;;5068849;28;21003;-79
2022/08/17 09:56:51;;;;;;;14.50;11.88;;;;;;;;;;5067490;28;19912;-77
2022/08/17 09:59:35;;;;;;;14.55;12.25;;;;;;;;;;5062351;28;20473;-77
2022/08/17 10:02:52;;;;;;;15.38;12.75;;;;;;;;;;5060240;28;20056;-74
2022/08/17 10:05:45;;;;;;;15.32;13.15;;;;;;;;;;5028172;28;20032;-77
2022/08/17 10:08:22;;;;;;;14.77;12.93;;;;;;;;;;5068339;28;20025;-76
2022/08/17 10:11:09;;;;;;;11.55;10.35;;;;;;;;;;5067508;28;20047;-75
2022/08/17 10:13:37;;;;;;;13.52;11.02;;;;;;;;;;5066817;28;20112;-76
2022/08/17 10:16:10;;;;;;;13.18;11.20;;;;;;;;;;5059602;28;20021;-76
2022/08/17 10:19:03;;;;;;;11.82;10.32;;;;;;;;;;5058784;28;20032;-79
2022/08/17 10:27:47;;;;;;;13.60;11.48;;;;;;;;;;5070147;28;20079;-77
2022/08/17 10:30:16;;;;;;;17.00;15.20;;;;;;;;;;5073781;28;20139;-76
2022/08/17 10:32:47;;;;;;;14.50;12.13;;;;;;;;;;5065975;28;20035;-78
2022/08/17 10:35:29;;;;;;;13.52;12.07;;;;;;;;;;5066936;28;20051;-79
2022/08/17 10:38:21;;;;;;;16.15;14.45;;;;;;;;;;5071482;28;20040;-79
2022/08/17 10:41:05;;;;;;;14.68;13.15;;;;;;;;;;5062024;28;20512;-76
2022/08/17 10:43:59;;;;;;;15.73;14.05;;;;;;;;;;5067590;28;20043;-75
2022/08/17 10:46:43;;;;;;;14.25;12.75;;;;;;;;;;5067217;28;20029;-78
2022/08/17 10:49:19;;;;;;;17.35;15.13;;;;;;;;;;5064425;28;20433;-80
2022/08/17 10:51:47;;;;;;;16.42;14.57;;;;;;;;;;5065270;28;20040;-76
2022/08/17 10:54:33;;;;;;;18.88;16.05;;;;;;;;;;5058720;28;20463;-76
2022/08/17 10:56:58;;;;;;;18.35;16.52;;;;;;;;;;5065143;28;20024;-79
2022/08/17 10:59:33;;;;;;;18.67;15.82;;;;;;;;;;5063013;28;20469;-77
2022/08/17 11:02:21;;;;;;;18.00;16.10;;;;;;;;;;5055983;28;20039;-80
2022/08/17 11:04:59;;;;;;;18.15;14.73;;;;;;;;;;5062711;28;20025;-77
2022/08/17 11:07:34;;;;;;;18.75;15.20;;;;;;;;;;5058346;28;20032;-76
2022/08/17 11:10:17;;;;;;;17.90;16.08;;;;;;;;;;5055611;28;20150;-78
2022/08/17 11:13:04;;;;;;;16.25;14.55;;;;;;;;;;5061014;28;20051;-81
2022/08/17 11:16:11;;;;;;;16.10;14.40;;;;;;;;;;5059792;28;20036;-79
2022/08/17 11:19:16;;;;;;;16.92;14.35;;;;;;;;;;5062872;28;20518;-81
2022/08/17 11:22:06;;;;;;;14.65;13.05;;;;;;;;;;5006224;28;20051;-78
2022/08/17 11:24:50;;;;;;;17.00;14.65;;;;;;;;;;5064073;28;20033;-80
2022/08/17 11:27:34;;;;;;;13.98;11.73;;;;;;;;;;5066323;28;20027;-81
2022/08/17 11:30:05;;;;;;;16.02;13.60;;;;;;;;;;5062434;28;21513;-80
2022/08/17 11:32:47;;;;;;;13.40;11.75;;;;;;;;;;5059305;28;20101;-83
2022/08/17 11:35:29;;;;;;;17.38;14.45;;;;;;;;;;5061943;28;20401;-78
2022/08/17 11:38:07;;;;;;;18.20;14.43;;;;;;;;;;5066153;28;20476;-80
2022/08/17 11:40:58;;;;;;;14.85;13.35;;;;;;;;;;5066334;28;20027;-81
2022/08/17 11:43:54;;;;;;;15.30;13.70;;;;;;;;;;5066389;28;20696;-80
2022/08/17 11:52:41;;;;;;;13.90;12.25;;;;;;;;;;5064451;28;20111;-79
2022/08/17 11:55:11;;;;;;;14.88;13.20;;;;;;;;;;5066487;28;20528;-78
2022/08/17 11:57:39;;;;;;;14.38;12.10;;;;;;;;;;5064477;28;20357;-78
2022/08/17 12:00:10;;;;;;;14.18;12.48;;;;;;;;;;5062499;28;20437;-80
2022/08/17 12:02:44;;;;;;;13.98;11.70;;;;;;;;;;5067838;28;20060;-80
2022/08/17 12:05:24;;;;;;;14.40;12.43;;;;;;;;;;5068669;28;20032;-80
2022/08/17 12:07:51;;;;;;;14.38;11.98;;;;;;;;;;5063926;28;20042;-81
2022/08/17 12:10:20;;;;;;;15.13;13.52;;;;;;;;;;5063221;28;20037;-80
2022/08/17 12:12:49;;;;;;;14.18;12.48;;;;;;;;;;5065273;28;20036;-79
2022/08/17 12:15:27;;;;;;;13.88;12.38;;;;;;;;;;5063362;28;20531;-80
2022/08/17 12:17:55;;;;;;;11.30;9.40;;;;;;;;;;5062630;28;20393;-81
2022/08/17 12:20:35;;;;;;;12.48;10.65;;;;;;;;;;5071657;28;20044;-82
2022/08/17 12:23:19;;;;;;;12.85;10.23;;;;;;;;;;5061599;28;20619;-80
2022/08/17 12:25:59;;;;;;;11.73;9.10;;;;;;;;;;5057285;28;20338;-82
2022/08/17 12:28:32;;;;;;;13.38;11.98;;;;;;;;;;5066674;28;20062;-79
2022/08/17 12:31:02;;;;;;;9.98;8.60;;;;;;;;;;5062460;28;20039;-80
2022/08/17 12:33:27;;;;;;;10.70;8.15;;;;;;;;;;5063986;28;20024;-78
2022/08/17 12:35:59;;;;;;;10.95;9.32;;;;;;;;;;5059807;28;20060;-79
2022/08/17 12:38:25;;;;;;;11.52;10.32;;;;;;;;;;5060015;28;20020;-81
2022/08/17 12:40:55;;;;;;;13.65;12.18;;;;;;;;;;5067386;28;20115;-83
2022/08/17 12:43:26;;;;;;;10.80;9.32;;;;;;;;;;5060599;28;20482;-79
2022/08/17 12:45:59;;;;;;;12.13;10.77;;;;;;;;;;5064246;28;20024;-80
2022/08/17 12:48:27;;;;;;;13.88;11.88;;;;;;;;;;5062663;28;20028;-79
2022/08/17 12:50:59;;;;;;;13.25;11.77;;;;;;;;;;5059802;28;20035;-81
2022/08/17 12:53:28;;;;;;;;;;;;;;;;;;5065912;28;20476;-80
2022/08/17 12:55:56;;;;;;;14.20;11.45;;;;;;;;;;5060277;28;20357;-81
2022/08/17 12:58:30;;;;;;;10.65;9.18;;;;;;;;;;5062939;28;20028;-81
2022/08/17 13:01:00;;;;;;;11.68;9.75;;;;;;;;;;5073727;28;20037;-80
2022/08/17 13:03:30;;;;;;;13.38;11.75;;;;;;;;;;5061756;28;20025;-82
2022/08/17 13:06:06;;;;;;;11.93;9.57;;;;;;;;;;5066169;28;20029;-80
2022/08/17 13:08:35;;;;;;;10.80;9.13;;;;;;;;;;5061342;28;20024;-80
2022/08/17 13:11:17;;;;;;;11.88;9.75;;;;;;;;;;5063586;28;20086;-81
2022/08/17 13:13:51;;;;;;;12.55;10.75;;;;;;;;;;5062371;28;20032;-79
2022/08/17 13:16:19;;;;;;;12.02;10.43;;;;;;;;;;5058465;28;20070;-80
2022/08/17 13:18:46;;;;;;;11.00;9.35;;;;;;;;;;5066404;28;20021;-79
2022/08/17 13:21:18;;;;;;;14.70;12.32;;;;;;;;;;5055742;28;20260;-79
2022/08/17 13:24:01;;;;;;;10.88;8.90;;;;;;;;;;5054309;28;20127;-79
2022/08/17 13:26:40;;;;;;;15.25;11.75;;;;;;;;;;5064022;28;20039;-80
2022/08/17 13:29:32;;;;;;;13.00;11.20;;;;;;;;;;5059239;28;20422;-78
2022/08/17 13:32:06;;;;;;;11.48;9.38;;;;;;;;;;5044272;28;20043;-79
2022/08/17 13:34:43;;;;;;;10.90;9.13;;;;;;;;;;5056380;28;20052;-78
2022/08/17 13:37:29;;;;;;;12.90;11.40;;;;;;;;;;5053156;28;20035;-79
2022/08/17 13:39:57;;;;;;;15.60;12.25;;;;;;;;;;5048699;28;20032;-81
2022/08/17 13:42:39;;;;;;;13.07;11.65;;;;;;;;;;5048530;28;20119;-81
2022/08/17 13:45:34;;;;;;;10.20;9.07;;;;;;;;;;5052335;28;20043;-80
2022/08/17 13:48:15;;;;;;;10.18;8.85;;;;;;;;;;5052518;28;20020;-79
2022/08/17 13:50:54;;;;;;;13.73;12.15;;;;;;;;;;5058938;28;20033;-79
2022/08/17 13:53:21;;;;;;;12.20;10.55;;;;;;;;;;5053924;28;21235;-83
2022/08/17 13:56:08;;;;;;;14.02;12.52;;;;;;;;;;5058568;28;20028;-77
2022/08/17 13:58:37;;;;;;;12.18;10.88;;;;;;;;;;5054809;28;20044;-81
2022/08/17 14:01:41;;;;;;;15.85;12.25;;;;;;;;;;5059991;28;20426;-79
2022/08/17 14:04:11;;;;;;;11.50;10.13;;;;;;;;;;5064158;28;20488;-79
2022/08/17 14:06:54;;;;;;;16.25;13.40;;;;;;;;;;5062892;28;20393;-80
2022/08/17 14:09:24;;;;;;;14.27;12.05;;;;;;;;;;5066608;28;20535;-77
2022/08/17 14:11:51;;;;;;;11.45;9.93;;;;;;;;;;5065912;28;20456;-78
2022/08/17 14:14:17;;;;;;;13.50;10.70;;;;;;;;;;5061154;28;20056;-77
2022/08/17 14:16:42;;;;;;;14.82;13.05;;;;;;;;;;5067638;28;20074;-79
2022/08/17 14:19:11;;;;;;;13.50;10.07;;;;;;;;;;5064419;28;20587;-79
2022/08/17 14:21:38;;;;;;;11.65;9.48;;;;;;;;;;5066943;28;20031;-79
2022/08/17 14:24:07;;;;;;;17.05;13.07;;;;;;;;;;5063545;28;20120;-80
2022/08/17 14:26:33;;;;;;;11.35;10.10;;;;;;;;;;5055646;28;20035;-82
2022/08/17 14:29:01;;;;;;;13.63;12.23;;;;;;;;;;5067680;28;20392;-80
2022/08/17 14:31:26;;;;;;;13.75;12.00;;;;;;;;;;5062625;28;20047;-80
2022/08/17 14:33:52;;;;;;;12.93;10.75;;;;;;;;;;5058594;28;20133;-82
2022/08/17 14:36:18;;;;;;;13.30;11.82;;;;;;;;;;5076233;28;20040;-79
2022/08/17 14:38:44;;;;;;;13.25;11.95;;;;;;;;;;5056463;28;20040;-80
2022/08/17 14:41:10;;;;;;;12.27;10.80;;;;;;;;;;5058754;28;20025;-79
2022/08/17 14:43:35;;;;;;;12.43;10.63;;;;;;;;;;5062392;28;20039;-82
2022/08/17 14:46:00;;;;;;;12.00;10.35;;;;;;;;;;5065917;28;20395;-81
2022/08/17 14:48:26;;;;;;;12.88;10.52;;;;;;;;;;5062410;28;20060;-79
2022/08/17 14:50:52;;;;;;;13.15;10.73;;;;;;;;;;5062078;28;20127;-81
2022/08/17 14:53:19;;;;;;;13.52;12.13;;;;;;;;;;5063329;28;20209;-79
2022/08/17 14:55:45;;;;;;;12.18;10.85;;;;;;;;;;5061437;28;20059;-81
2022/08/17 14:58:11;;;;;;;12.82;11.15;;;;;;;;;;5063725;28;20027;-79
2022/08/17 15:00:37;;;;;;;14.35;12.82;;;;;;;;;;5064044;28;20047;-81
2022/08/17 15:03:04;;;;;;;15.35;12.48;;;;;;;;;;5067903;28;20499;-78
2022/08/17 15:05:33;;;;;;;13.52;10.75;;;;;;;;;;5062802;28;20120;-80
2022/08/17 15:08:00;;;;;;;12.95;11.50;;;;;;;;;;5065441;28;20059;-80
2022/08/17 15:10:26;;;;;;;12.48;11.10;;;;;;;;;;5064047;28;20116;-81
2022/08/17 15:12:52;;;;;;;14.07;11.60;;;;;;;;;;5063003;28;20028;-78
2022/08/17 15:15:18;;;;;;;15.60;12.30;;;;;;;;;;5061276;28;20114;-80
2022/08/17 15:17:44;;;;;;;18.15;14.98;;;;;;;;;;5064901;28;20056;-81
2022/08/17 15:20:11;;;;;;;16.55;14.23;;;;;;;;;;5065790;28;20055;-81
2022/08/17 15:22:40;;;;;;;13.63;11.65;;;;;;;;;;5066031;28;20039;-80
2022/08/17 15:25:07;;;;;;;15.18;11.35;;;;;;;;;;5059735;28;20024;-78
2022/08/17 15:27:33;;;;;;;14.95;11.48;;;;;;;;;;5069129;28;20609;-80
2022/08/17 15:30:00;;;;;;;13.40;11.27;;;;;;;;;;5062693;28;20036;-81